Aviation Digital Data Service (ADDS)

Output produced by METARs form (2342 UTC 15 February 2019)
found at http://www.aviationweather.gov/metar/data/
 
METAR text: OMAL 152300Z 15006KT CAVOK 21/04 Q1016 NOSIG
Conditions at: OMAL (AL AIN INTNL ARP, AE) observed 2300 UTC 15 February 2019
Temperature: 21.0°C (70°F)
Dewpoint: 4.0°C (39°F) [RH = 33%]
Pressure (altimeter): 30.00 inches Hg (1016.0 mb)
Winds: from the SSE (150 degrees) at 7 MPH (6 knots; 3.1 m/s)
Visibility: 6 or more miles (10+ km)
Ceiling: ceiling and visibility are OK
Clouds: unknown
Weather: no significant weather observed at this time

METAR text: OMAL 152200Z 13008KT CAVOK 22/04 Q1016 NOSIG
Conditions at: OMAL (AL AIN INTNL ARP, AE) observed 2200 UTC 15 February 2019
Temperature: 22.0°C (72°F)
Dewpoint: 4.0°C (39°F) [RH = 31%]
Pressure (altimeter): 30.00 inches Hg (1016.0 mb)
Winds: from the SE (130 degrees) at 9 MPH (8 knots; 4.1 m/s)
Visibility: 6 or more miles (10+ km)
Ceiling: ceiling and visibility are OK
Clouds: unknown
Weather: no significant weather observed at this time

METAR text: OMAL 152100Z 11003KT 080V140 CAVOK 22/09 Q1017 NOSIG
Conditions at: OMAL (AL AIN INTNL ARP, AE) observed 2100 UTC 15 February 2019
Temperature: 22.0°C (72°F)
Dewpoint: 9.0°C (48°F) [RH = 43%]
Pressure (altimeter): 30.03 inches Hg (1017.0 mb)
Winds: from the ESE (110 degrees) at 3 MPH (3 knots; 1.5 m/s)
Visibility: 6 or more miles (10+ km)
Ceiling: ceiling and visibility are OK
Clouds: unknown
Weather: no significant weather observed at this time

METAR text: OMAL 152000Z VRB02KT CAVOK 21/11 Q1017 NOSIG
Conditions at: OMAL (AL AIN INTNL ARP, AE) observed 2000 UTC 15 February 2019
Temperature: 21.0°C (70°F)
Dewpoint: 11.0°C (52°F) [RH = 53%]
Pressure (altimeter): 30.03 inches Hg (1017.0 mb)
Winds: variable direction winds at 2 MPH (2 knots; 1.0 m/s)
Visibility: 6 or more miles (10+ km)
Ceiling: ceiling and visibility are OK
Clouds: unknown
Weather: no significant weather observed at this time

METAR text: OMAL 151900Z 04003KT CAVOK 22/11 Q1018 NOSIG
Conditions at: OMAL (AL AIN INTNL ARP, AE) observed 1900 UTC 15 February 2019
Temperature: 22.0°C (72°F)
Dewpoint: 11.0°C (52°F) [RH = 50%]
Pressure (altimeter): 30.06 inches Hg (1018.0 mb)
Winds: from the NE (40 degrees) at 3 MPH (3 knots; 1.5 m/s)
Visibility: 6 or more miles (10+ km)
Ceiling: ceiling and visibility are OK
Clouds: unknown
Weather: no significant weather observed at this time

METAR text: OMAL 151800Z 06006KT CAVOK 23/11 Q1017 NOSIG
Conditions at: OMAL (AL AIN INTNL ARP, AE) observed 1800 UTC 15 February 2019
Temperature: 23.0°C (73°F)
Dewpoint: 11.0°C (52°F) [RH = 47%]
Pressure (altimeter): 30.03 inches Hg (1017.0 mb)
Winds: from the ENE (60 degrees) at 7 MPH (6 knots; 3.1 m/s)
Visibility: 6 or more miles (10+ km)
Ceiling: ceiling and visibility are OK
Clouds: unknown
Weather: no significant weather observed at this time

METAR text: OMAL 151700Z 02010KT CAVOK 23/10 Q1018 NOSIG
Conditions at: OMAL (AL AIN INTNL ARP, AE) observed 1700 UTC 15 February 2019
Temperature: 23.0°C (73°F)
Dewpoint: 10.0°C (50°F) [RH = 44%]
Pressure (altimeter): 30.06 inches Hg (1018.0 mb)
Winds: from the NNE (20 degrees) at 12 MPH (10 knots; 5.1 m/s)
Visibility: 6 or more miles (10+ km)
Ceiling: ceiling and visibility are OK
Clouds: unknown
Weather: no significant weather observed at this time

METAR text: OMAL 151600Z 28004KT 240V300 CAVOK 25/06 Q1018 BECMG 36006KT
Conditions at: OMAL (AL AIN INTNL ARP, AE) observed 1600 UTC 15 February 2019
Temperature: 25.0°C (77°F)
Dewpoint: 6.0°C (43°F) [RH = 30%]
Pressure (altimeter): 30.06 inches Hg (1018.0 mb)
Winds: from the W (280 degrees) at 5 MPH (4 knots; 2.1 m/s)
Visibility: 6 or more miles (10+ km)
Ceiling: ceiling and visibility are OK
Clouds: unknown
Weather: no significant weather observed at this time

METAR text: OMAL 151500Z 28005KT CAVOK 26/07 Q1018 BECMG 36006KT
Conditions at: OMAL (AL AIN INTNL ARP, AE) observed 1500 UTC 15 February 2019
Temperature: 26.0°C (79°F)
Dewpoint: 7.0°C (45°F) [RH = 30%]
Pressure (altimeter): 30.06 inches Hg (1018.0 mb)
Winds: from the W (280 degrees) at 6 MPH (5 knots; 2.6 m/s)
Visibility: 6 or more miles (10+ km)
Ceiling: ceiling and visibility are OK
Clouds: unknown
Weather: no significant weather observed at this time

METAR text: OMAL 151400Z 25007KT CAVOK 27/07 Q1017 BECMG 33008KT
Conditions at: OMAL (AL AIN INTNL ARP, AE) observed 1400 UTC 15 February 2019
Temperature: 27.0°C (81°F)
Dewpoint: 7.0°C (45°F) [RH = 28%]
Pressure (altimeter): 30.03 inches Hg (1017.0 mb)
Winds: from the WSW (250 degrees) at 8 MPH (7 knots; 3.6 m/s)
Visibility: 6 or more miles (10+ km)
Ceiling: ceiling and visibility are OK
Clouds: unknown
Weather: no significant weather observed at this time

METAR text: OMAL 151300Z 20006KT 170V240 CAVOK 28/07 Q1016 BECMG 33008KT
Conditions at: OMAL (AL AIN INTNL ARP, AE) observed 1300 UTC 15 February 2019
Temperature: 28.0°C (82°F)
Dewpoint: 7.0°C (45°F) [RH = 27%]
Pressure (altimeter): 30.00 inches Hg (1016.0 mb)
Winds: from the SSW (200 degrees) at 7 MPH (6 knots; 3.1 m/s)
Visibility: 6 or more miles (10+ km)
Ceiling: ceiling and visibility are OK
Clouds: unknown
Weather: no significant weather observed at this time

METAR text: OMAL 151200Z 19007KT 150V220 CAVOK 28/06 Q1016 NOSIG
Conditions at: OMAL (AL AIN INTNL ARP, AE) observed 1200 UTC 15 February 2019
Temperature: 28.0°C (82°F)
Dewpoint: 6.0°C (43°F) [RH = 25%]
Pressure (altimeter): 30.00 inches Hg (1016.0 mb)
Winds: from the S (190 degrees) at 8 MPH (7 knots; 3.6 m/s)
Visibility: 6 or more miles (10+ km)
Ceiling: ceiling and visibility are OK
Clouds: unknown
Weather: no significant weather observed at this time

METAR text: OMAL 151100Z 15008KT 110V180 CAVOK 28/07 Q1016 NOSIG
Conditions at: OMAL (AL AIN INTNL ARP, AE) observed 1100 UTC 15 February 2019
Temperature: 28.0°C (82°F)
Dewpoint: 7.0°C (45°F) [RH = 27%]
Pressure (altimeter): 30.00 inches Hg (1016.0 mb)
Winds: from the SSE (150 degrees) at 9 MPH (8 knots; 4.1 m/s)
Visibility: 6 or more miles (10+ km)
Ceiling: ceiling and visibility are OK
Clouds: unknown
Weather: no significant weather observed at this time

METAR text: OMAL 151000Z 16009KT 120V220 CAVOK 26/08 Q1017 NOSIG
Conditions at: OMAL (AL AIN INTNL ARP, AE) observed 1000 UTC 15 February 2019
Temperature: 26.0°C (79°F)
Dewpoint: 8.0°C (46°F) [RH = 32%]
Pressure (altimeter): 30.03 inches Hg (1017.0 mb)
Winds: from the SSE (160 degrees) at 10 MPH (9 knots; 4.6 m/s)
Visibility: 6 or more miles (10+ km)
Ceiling: ceiling and visibility are OK
Clouds: unknown
Weather: no significant weather observed at this time

METAR text: OMAL 150900Z 15011KT 120V180 CAVOK 26/09 Q1019 NOSIG
Conditions at: OMAL (AL AIN INTNL ARP, AE) observed 0900 UTC 15 February 2019
Temperature: 26.0°C (79°F)
Dewpoint: 9.0°C (48°F) [RH = 34%]
Pressure (altimeter): 30.09 inches Hg (1019.0 mb)
Winds: from the SSE (150 degrees) at 13 MPH (11 knots; 5.7 m/s)
Visibility: 6 or more miles (10+ km)
Ceiling: ceiling and visibility are OK
Clouds: unknown
Weather: no significant weather observed at this time

METAR text: OMAL 150800Z 17010KT CAVOK 24/10 Q1020 NOSIG
Conditions at: OMAL (AL AIN INTNL ARP, AE) observed 0800 UTC 15 February 2019
Temperature: 24.0°C (75°F)
Dewpoint: 10.0°C (50°F) [RH = 41%]
Pressure (altimeter): 30.12 inches Hg (1020.0 mb)
Winds: from the S (170 degrees) at 12 MPH (10 knots; 5.1 m/s)
Visibility: 6 or more miles (10+ km)
Ceiling: ceiling and visibility are OK
Clouds: unknown
Weather: no significant weather observed at this time

METAR text: OMAL 150700Z 16013KT CAVOK 22/11 Q1020 NOSIG
Conditions at: OMAL (AL AIN INTNL ARP, AE) observed 0700 UTC 15 February 2019
Temperature: 22.0°C (72°F)
Dewpoint: 11.0°C (52°F) [RH = 50%]
Pressure (altimeter): 30.12 inches Hg (1020.0 mb)
Winds: from the SSE (160 degrees) at 15 MPH (13 knots; 6.7 m/s)
Visibility: 6 or more miles (10+ km)
Ceiling: ceiling and visibility are OK
Clouds: unknown
Weather: no significant weather observed at this time

METAR text: OMAL 150600Z 17014KT CAVOK 21/12 Q1021 NOSIG
Conditions at: OMAL (AL AIN INTNL ARP, AE) observed 0600 UTC 15 February 2019
Temperature: 21.0°C (70°F)
Dewpoint: 12.0°C (54°F) [RH = 56%]
Pressure (altimeter): 30.15 inches Hg (1021.0 mb)
Winds: from the S (170 degrees) at 16 MPH (14 knots; 7.2 m/s)
Visibility: 6 or more miles (10+ km)
Ceiling: ceiling and visibility are OK
Clouds: unknown
Weather: no significant weather observed at this time

METAR text: OMAL 150500Z 15012KT CAVOK 18/10 Q1020 NOSIG
Conditions at: OMAL (AL AIN INTNL ARP, AE) observed 0500 UTC 15 February 2019
Temperature: 18.0°C (64°F)
Dewpoint: 10.0°C (50°F) [RH = 59%]
Pressure (altimeter): 30.12 inches Hg (1020.0 mb)
Winds: from the SSE (150 degrees) at 14 MPH (12 knots; 6.2 m/s)
Visibility: 6 or more miles (10+ km)
Ceiling: ceiling and visibility are OK
Clouds: unknown
Weather: no significant weather observed at this time

METAR text: OMAL 150400Z 08004KT CAVOK 16/09 Q1020 NOSIG
Conditions at: OMAL (AL AIN INTNL ARP, AE) observed 0400 UTC 15 February 2019
Temperature: 16.0°C (61°F)
Dewpoint: 9.0°C (48°F) [RH = 63%]
Pressure (altimeter): 30.12 inches Hg (1020.0 mb)
Winds: from the E (80 degrees) at 5 MPH (4 knots; 2.1 m/s)
Visibility: 6 or more miles (10+ km)
Ceiling: ceiling and visibility are OK
Clouds: unknown
Weather: no significant weather observed at this time

METAR text: OMAL 150300Z 09003KT CAVOK 16/08 Q1019 NOSIG
Conditions at: OMAL (AL AIN INTNL ARP, AE) observed 0300 UTC 15 February 2019
Temperature: 16.0°C (61°F)
Dewpoint: 8.0°C (46°F) [RH = 59%]
Pressure (altimeter): 30.09 inches Hg (1019.0 mb)
Winds: from the E (90 degrees) at 3 MPH (3 knots; 1.5 m/s)
Visibility: 6 or more miles (10+ km)
Ceiling: ceiling and visibility are OK
Clouds: unknown
Weather: no significant weather observed at this time

METAR text: OMAL 150200Z 05003KT CAVOK 16/08 Q1018 NOSIG
Conditions at: OMAL (AL AIN INTNL ARP, AE) observed 0200 UTC 15 February 2019
Temperature: 16.0°C (61°F)
Dewpoint: 8.0°C (46°F) [RH = 59%]
Pressure (altimeter): 30.06 inches Hg (1018.0 mb)
Winds: from the NE (50 degrees) at 3 MPH (3 knots; 1.5 m/s)
Visibility: 6 or more miles (10+ km)
Ceiling: ceiling and visibility are OK
Clouds: unknown
Weather: no significant weather observed at this time

METAR text: OMAL 150100Z 05006KT CAVOK 15/08 Q1018 NOSIG
Conditions at: OMAL (AL AIN INTNL ARP, AE) observed 0100 UTC 15 February 2019
Temperature: 15.0°C (59°F)
Dewpoint: 8.0°C (46°F) [RH = 63%]
Pressure (altimeter): 30.06 inches Hg (1018.0 mb)
Winds: from the NE (50 degrees) at 7 MPH (6 knots; 3.1 m/s)
Visibility: 6 or more miles (10+ km)
Ceiling: ceiling and visibility are OK
Clouds: unknown
Weather: no significant weather observed at this time

METAR text: OMAL 150000Z 05006KT CAVOK 15/07 Q1018 NOSIG
Conditions at: OMAL (AL AIN INTNL ARP, AE) observed 0000 UTC 15 February 2019
Temperature: 15.0°C (59°F)
Dewpoint: 7.0°C (45°F) [RH = 59%]
Pressure (altimeter): 30.06 inches Hg (1018.0 mb)
Winds: from the NE (50 degrees) at 7 MPH (6 knots; 3.1 m/s)
Visibility: 6 or more miles (10+ km)
Ceiling: ceiling and visibility are OK
Clouds: unknown
Weather: no significant weather observed at this time

METAR text: OMAL 142300Z 05006KT CAVOK 15/07 Q1018 NOSIG
Conditions at: OMAL (AL AIN INTNL ARP, AE) observed 2300 UTC 14 February 2019
Temperature: 15.0°C (59°F)
Dewpoint: 7.0°C (45°F) [RH = 59%]
Pressure (altimeter): 30.06 inches Hg (1018.0 mb)
Winds: from the NE (50 degrees) at 7 MPH (6 knots; 3.1 m/s)
Visibility: 6 or more miles (10+ km)
Ceiling: ceiling and visibility are OK
Clouds: unknown
Weather: no significant weather observed at this time

METAR text: OMAL 142200Z 09004KT CAVOK 16/08 Q1018 NOSIG
Conditions at: OMAL (AL AIN INTNL ARP, AE) observed 2200 UTC 14 February 2019
Temperature: 16.0°C (61°F)
Dewpoint: 8.0°C (46°F) [RH = 59%]
Pressure (altimeter): 30.06 inches Hg (1018.0 mb)
Winds: from the E (90 degrees) at 5 MPH (4 knots; 2.1 m/s)
Visibility: 6 or more miles (10+ km)
Ceiling: ceiling and visibility are OK
Clouds: unknown
Weather: no significant weather observed at this time

METAR text: OMAL 142100Z 36006KT CAVOK 16/08 Q1019 NOSIG
Conditions at: OMAL (AL AIN INTNL ARP, AE) observed 2100 UTC 14 February 2019
Temperature: 16.0°C (61°F)
Dewpoint: 8.0°C (46°F) [RH = 59%]
Pressure (altimeter): 30.09 inches Hg (1019.0 mb)
Winds: from the N (360 degrees) at 7 MPH (6 knots; 3.1 m/s)
Visibility: 6 or more miles (10+ km)
Ceiling: ceiling and visibility are OK
Clouds: unknown
Weather: no significant weather observed at this time

METAR text: OMAL 142000Z 03005KT CAVOK 17/09 Q1019 NOSIG
Conditions at: OMAL (AL AIN INTNL ARP, AE) observed 2000 UTC 14 February 2019
Temperature: 17.0°C (63°F)
Dewpoint: 9.0°C (48°F) [RH = 59%]
Pressure (altimeter): 30.09 inches Hg (1019.0 mb)
Winds: from the NNE (30 degrees) at 6 MPH (5 knots; 2.6 m/s)
Visibility: 6 or more miles (10+ km)
Ceiling: ceiling and visibility are OK
Clouds: unknown
Weather: no significant weather observed at this time

METAR text: OMAL 141900Z 33007KT CAVOK 18/09 Q1019 NOSIG
Conditions at: OMAL (AL AIN INTNL ARP, AE) observed 1900 UTC 14 February 2019
Temperature: 18.0°C (64°F)
Dewpoint: 9.0°C (48°F) [RH = 56%]
Pressure (altimeter): 30.09 inches Hg (1019.0 mb)
Winds: from the NNW (330 degrees) at 8 MPH (7 knots; 3.6 m/s)
Visibility: 6 or more miles (10+ km)
Ceiling: ceiling and visibility are OK
Clouds: unknown
Weather: no significant weather observed at this time

METAR text: OMAL 141800Z 32008KT CAVOK 18/09 Q1020 NOSIG
Conditions at: OMAL (AL AIN INTNL ARP, AE) observed 1800 UTC 14 February 2019
Temperature: 18.0°C (64°F)
Dewpoint: 9.0°C (48°F) [RH = 56%]
Pressure (altimeter): 30.12 inches Hg (1020.0 mb)
Winds: from the NW (320 degrees) at 9 MPH (8 knots; 4.1 m/s)
Visibility: 6 or more miles (10+ km)
Ceiling: ceiling and visibility are OK
Clouds: unknown
Weather: no significant weather observed at this time

METAR text: OMAL 141700Z 31009KT CAVOK 19/09 Q1019 NOSIG
Conditions at: OMAL (AL AIN INTNL ARP, AE) observed 1700 UTC 14 February 2019
Temperature: 19.0°C (66°F)
Dewpoint: 9.0°C (48°F) [RH = 52%]
Pressure (altimeter): 30.09 inches Hg (1019.0 mb)
Winds: from the NW (310 degrees) at 10 MPH (9 knots; 4.6 m/s)
Visibility: 6 or more miles (10+ km)
Ceiling: ceiling and visibility are OK
Clouds: unknown
Weather: no significant weather observed at this time

METAR text: OMAL 141600Z 31006KT CAVOK 21/05 Q1018 NOSIG
Conditions at: OMAL (AL AIN INTNL ARP, AE) observed 1600 UTC 14 February 2019
Temperature: 21.0°C (70°F)
Dewpoint: 5.0°C (41°F) [RH = 35%]
Pressure (altimeter): 30.06 inches Hg (1018.0 mb)
Winds: from the NW (310 degrees) at 7 MPH (6 knots; 3.1 m/s)
Visibility: 6 or more miles (10+ km)
Ceiling: ceiling and visibility are OK
Clouds: unknown
Weather: no significant weather observed at this time

METAR text: OMAL 141500Z 32006KT CAVOK 22/05 Q1017 NOSIG
Conditions at: OMAL (AL AIN INTNL ARP, AE) observed 1500 UTC 14 February 2019
Temperature: 22.0°C (72°F)
Dewpoint: 5.0°C (41°F) [RH = 33%]
Pressure (altimeter): 30.03 inches Hg (1017.0 mb)
Winds: from the NW (320 degrees) at 7 MPH (6 knots; 3.1 m/s)
Visibility: 6 or more miles (10+ km)
Ceiling: ceiling and visibility are OK
Clouds: unknown
Weather: no significant weather observed at this time

METAR text: OMAL 141400Z 33006KT CAVOK 24/05 Q1017 NOSIG
Conditions at: OMAL (AL AIN INTNL ARP, AE) observed 1400 UTC 14 February 2019
Temperature: 24.0°C (75°F)
Dewpoint: 5.0°C (41°F) [RH = 29%]
Pressure (altimeter): 30.03 inches Hg (1017.0 mb)
Winds: from the NNW (330 degrees) at 7 MPH (6 knots; 3.1 m/s)
Visibility: 6 or more miles (10+ km)
Ceiling: ceiling and visibility are OK
Clouds: unknown
Weather: no significant weather observed at this time

METAR text: OMAL 141300Z 32007KT 290V010 CAVOK 25/06 Q1017 NOSIG
Conditions at: OMAL (AL AIN INTNL ARP, AE) observed 1300 UTC 14 February 2019
Temperature: 25.0°C (77°F)
Dewpoint: 6.0°C (43°F) [RH = 30%]
Pressure (altimeter): 30.03 inches Hg (1017.0 mb)
Winds: from the NW (320 degrees) at 8 MPH (7 knots; 3.6 m/s)
Visibility: 6 or more miles (10+ km)
Ceiling: ceiling and visibility are OK
Clouds: unknown
Weather: no significant weather observed at this time

METAR text: OMAL 141200Z 32007KT 280V010 CAVOK 24/06 Q1017 NOSIG
Conditions at: OMAL (AL AIN INTNL ARP, AE) observed 1200 UTC 14 February 2019
Temperature: 24.0°C (75°F)
Dewpoint: 6.0°C (43°F) [RH = 31%]
Pressure (altimeter): 30.03 inches Hg (1017.0 mb)
Winds: from the NW (320 degrees) at 8 MPH (7 knots; 3.6 m/s)
Visibility: 6 or more miles (10+ km)
Ceiling: ceiling and visibility are OK
Clouds: unknown
Weather: no significant weather observed at this time

Forecast for: OMAL (AL AIN INTNL ARP, AE)
Text: TAF OMAL 152300Z 1600/1706 15013KT 8000 NSC
Forecast period: 0000 to 1500 UTC 16 February 2019
Forecast type: FROM: standard forecast or significant change
Winds: from the SSE (150 degrees) at 15 MPH (13 knots; 6.7 m/s)
Visibility: 5 miles (8 km)
Ceiling: unknown
Clouds: missing
Weather: no significant weather forecast for this period
Text: PROB30
Forecast period: 0400 to 0700 UTC 16 February 2019
Forecast type: TEMPORARY: The following changes expected for less than half the time period
Visibility: 2.49 miles (4.01 km)
Ceiling: unknown
Clouds: missing
Weather: DU  (widespread dust)
Text: TEMPO 1604/1607 4000 DU
Forecast period: 1500 to 1900 UTC 16 February 2019
Forecast type: BECOMING: Conditions expected to become as follows by 1700 UTC 16 February 2019
Winds: variable direction winds at 2 MPH (2 knots; 1.0 m/s)
Visibility: 5 miles (8 km)
Ceiling: unknown
Clouds: missing
Weather: no significant weather forecast for this period
Text: BECMG 1615/1617 VRB02KT
Forecast period: 1900 UTC 16 February 2019 to 0600 UTC 17 February 2019
Forecast type: BECOMING: Conditions expected to become as follows by 2100 UTC 16 February 2019
Winds: from the S (170 degrees) at 16 MPH (14 knots; 7.2 m/s)
Visibility: 5 miles (8 km)
Ceiling: unknown
Clouds: missing
Weather: no significant weather forecast for this period